Time;durP1;ratioP1;P1;durP2;ratioP2;P2;SDS_P1;SDS_P2;PMS_P1;PMS_P2;Temp;Humidity;BMP_temperature;BMP_pressure;BME280_temperature;BME280_humidity;BME280_pressure;Samples;Min_cycle;Max_cycle;Signal;HPM_P1;HPM_P2
2024/02/03 00:01:28;;;;;;;29.73;15.20;;;;;;;;;;6105926;23;20017;-92
2024/02/03 00:04:05;;;;;;;38.08;18.15;;;;;;;;;;6108092;23;20016;-90
2024/02/03 00:06:31;;;;;;;9.85;6.70;;;;;;;;;;6107638;23;20017;-90
2024/02/03 00:09:12;;;;;;;8.35;6.93;;;;;;;;;;6112766;23;20013;-96
2024/02/03 00:11:48;;;;;;;5.20;4.63;;;;;;;;;;6115471;23;20010;-90
2024/02/03 00:14:26;;;;;;;7.45;6.75;;;;;;;;;;6139091;23;20006;-95
2024/02/03 00:16:56;;;;;;;7.40;6.80;;;;;;;;;;6112412;23;20022;-96
2024/02/03 00:19:47;;;;;;;3.88;3.20;;;;;;;;;;6111394;23;20006;-96
2024/02/03 00:22:30;;;;;;;5.20;4.80;;;;;;;;;;6117381;23;20012;-96
2024/02/03 00:24:56;;;;;;;4.63;4.28;;;;;;;;;;6116998;23;20014;-91
2024/02/03 00:27:44;;;;;;;6.35;5.85;;;;;;;;;;6134845;23;20420;-96
2024/02/03 00:30:46;;;;;;;5.30;4.90;;;;;;;;;;6113616;23;20082;-95
2024/02/03 00:33:40;;;;;;;4.80;4.45;;;;;;;;;;6088023;23;20006;-96
2024/02/03 00:36:33;;;;;;;5.07;4.55;;;;;;;;;;6142616;23;20005;-96
2024/02/03 00:39:38;;;;;;;6.90;6.32;;;;;;;;;;6134413;23;20014;-96
2024/02/03 00:42:04;;;;;;;7.90;7.30;;;;;;;;;;6072558;23;20006;-91
2024/02/03 00:44:33;;;;;;;7.53;6.88;;;;;;;;;;6115898;23;20014;-96
2024/02/03 00:47:02;;;;;;;6.05;5.55;;;;;;;;;;6110214;23;20010;-89
2024/02/03 00:49:44;;;;;;;5.60;5.20;;;;;;;;;;6110305;23;20081;-96
2024/02/03 00:52:15;;;;;;;4.45;4.05;;;;;;;;;;6115702;23;20068;-91
2024/02/03 00:55:03;;;;;;;5.70;5.30;;;;;;;;;;6112218;23;20093;-96
2024/02/03 01:00:47;;;;;;;6.28;5.82;;;;;;;;;;6205612;23;20039;-92
2024/02/03 01:03:26;;;;;;;5.90;5.50;;;;;;;;;;6170462;23;20001;-96
2024/02/03 01:06:00;;;;;;;5.10;4.70;;;;;;;;;;6180210;23;20003;-93
2024/02/03 01:08:28;;;;;;;;;;;;;;;;;;6176872;23;20036;-95
2024/02/03 01:11:00;;;;;;;8.27;7.75;;;;;;;;;;6203707;23;19953;-96
2024/02/03 01:13:59;;;;;;;7.00;6.50;;;;;;;;;;6173888;23;20005;-90
2024/02/03 01:16:37;;;;;;;6.18;5.70;;;;;;;;;;6169674;23;20422;-89
2024/02/03 01:19:06;;;;;;;6.57;6.07;;;;;;;;;;6170394;23;19996;-88
2024/02/03 01:21:39;;;;;;;7.03;6.53;;;;;;;;;;6166868;23;20009;-96
2024/02/03 01:24:07;;;;;;;5.07;4.68;;;;;;;;;;6168531;23;20390;-95
2024/02/03 01:27:03;;;;;;;10.00;9.32;;;;;;;;;;6163260;23;20033;-89
2024/02/03 01:29:29;;;;;;;9.60;8.90;;;;;;;;;;6104367;23;20372;-88
2024/02/03 01:32:07;;;;;;;8.50;7.65;;;;;;;;;;6163369;23;20067;-95
2024/02/03 01:34:33;;;;;;;6.60;6.03;;;;;;;;;;6170437;23;20005;-89
2024/02/03 01:37:30;;;;;;;6.35;5.85;;;;;;;;;;6170899;23;20088;-96
2024/02/03 01:40:15;;;;;;;7.32;6.72;;;;;;;;;;6164654;23;20015;-96
2024/02/03 01:42:43;;;;;;;4.82;4.43;;;;;;;;;;6172252;23;20011;-90
2024/02/03 01:45:09;;;;;;;5.30;4.68;;;;;;;;;;6199389;23;20012;-89
2024/02/03 01:58:47;;;;;;;5.00;4.50;;;;;;;;;;6110075;23;20026;-90
2024/02/03 02:01:29;;;;;;;8.73;8.02;;;;;;;;;;6088145;23;20038;-91
2024/02/03 02:04:01;;;;;;;6.97;6.38;;;;;;;;;;6087537;23;20018;-93
2024/02/03 02:08:53;;;;;;;7.25;6.65;;;;;;;;;;6186707;23;20021;-96
2024/02/03 02:11:35;;;;;;;6.63;5.93;;;;;;;;;;6168627;23;20327;-89
2024/02/03 02:17:44;;;;;;;4.97;4.23;;;;;;;;;;6190473;23;20047;-96
2024/02/03 02:20:34;;;;;;;8.50;7.90;;;;;;;;;;6164163;23;20055;-96
2024/02/03 02:23:00;;;;;;;7.30;6.70;;;;;;;;;;6166569;23;20060;-93
2024/02/03 02:25:31;;;;;;;6.55;5.95;;;;;;;;;;6173208;23;20013;-93
2024/02/03 02:28:35;;;;;;;6.47;5.93;;;;;;;;;;6173035;23;20004;-96
2024/02/03 02:31:07;;;;;;;6.55;5.95;;;;;;;;;;6174351;23;20001;-96
2024/02/03 02:34:02;;;;;;;7.00;6.30;;;;;;;;;;6200270;23;20005;-96
2024/02/03 02:36:51;;;;;;;5.93;4.95;;;;;;;;;;6173797;23;20036;-95
2024/02/03 02:39:21;;;;;;;6.38;5.78;;;;;;;;;;6109587;23;20073;-94
2024/02/03 02:44:32;;;;;;;6.50;4.35;;;;;;;;;;6200627;23;20029;-91
2024/02/03 02:47:07;;;;;;;5.18;4.68;;;;;;;;;;6174576;23;20001;-95
2024/02/03 02:49:46;;;;;;;5.57;5.03;;;;;;;;;;6172261;23;20053;-96
2024/02/03 02:52:33;;;;;;;7.05;6.45;;;;;;;;;;6172737;23;20009;-96
2024/02/03 02:54:59;;;;;;;4.97;4.47;;;;;;;;;;6200202;23;20031;-90
2024/02/03 02:57:34;;;;;;;4.82;4.32;;;;;;;;;;6175983;23;20016;-95
2024/02/03 03:00:13;;;;;;;4.53;4.07;;;;;;;;;;6174093;23;20123;-90
2024/02/03 03:02:51;;;;;;;6.22;5.63;;;;;;;;;;6173802;23;20040;-96
2024/02/03 03:05:46;;;;;;;5.57;5.07;;;;;;;;;;6168719;23;20017;-96
2024/02/03 03:08:16;;;;;;;6.00;5.18;;;;;;;;;;6188594;23;19998;-94
2024/02/03 03:13:40;;;;;;;5.30;4.32;;;;;;;;;;6157242;23;20020;-96
2024/02/03 03:16:12;;;;;;;6.00;5.40;;;;;;;;;;6200365;23;20045;-89
2024/02/03 03:18:38;;;;;;;7.40;5.82;;;;;;;;;;6173758;23;20016;-91
2024/02/03 03:21:04;;;;;;;5.47;4.97;;;;;;;;;;6176772;23;20001;-91
2024/02/03 03:23:31;;;;;;;7.88;7.28;;;;;;;;;;6173584;23;20016;-90
2024/02/03 03:26:03;;;;;;;7.38;6.78;;;;;;;;;;6176659;23;20012;-96
2024/02/03 03:28:29;;;;;;;6.55;5.95;;;;;;;;;;6172649;23;20015;-91
2024/02/03 03:30:58;;;;;;;5.32;4.93;;;;;;;;;;6173074;23;20016;-96
2024/02/03 03:33:24;;;;;;;5.80;5.20;;;;;;;;;;6171435;23;20001;-90
2024/02/03 03:36:02;;;;;;;5.97;5.38;;;;;;;;;;6174492;23;20060;-96
2024/02/03 03:38:42;;;;;;;4.93;4.43;;;;;;;;;;6199787;23;20400;-96
2024/02/03 03:41:13;;;;;;;6.15;5.53;;;;;;;;;;6199957;23;20061;-96
2024/02/03 03:43:39;;;;;;;4.50;4.07;;;;;;;;;;6168523;23;20092;-92
2024/02/03 03:46:16;;;;;;;6.32;4.45;;;;;;;;;;6173906;23;20005;-92
2024/02/03 03:48:42;;;;;;;4.75;4.10;;;;;;;;;;6176101;23;20024;-94
2024/02/03 03:51:08;;;;;;;4.65;3.90;;;;;;;;;;6171120;23;20001;-90
2024/02/03 03:53:35;;;;;;;4.93;4.43;;;;;;;;;;6169973;23;20084;-90
2024/02/03 03:56:02;;;;;;;5.35;4.30;;;;;;;;;;6171726;23;20028;-89
2024/02/03 03:59:07;;;;;;;5.55;5.00;;;;;;;;;;6170800;23;20009;-96
2024/02/03 04:02:02;;;;;;;5.85;4.88;;;;;;;;;;6150992;23;20488;-95
2024/02/03 04:04:38;;;;;;;4.53;4.13;;;;;;;;;;6169970;23;20009;-96
2024/02/03 04:07:05;;;;;;;5.80;4.97;;;;;;;;;;6185664;23;20449;-88
2024/02/03 04:09:34;;;;;;;4.65;4.10;;;;;;;;;;6198224;23;20016;-96
2024/02/03 04:12:08;;;;;;;5.18;4.32;;;;;;;;;;6174336;23;20012;-96
2024/02/03 04:14:34;;;;;;;;;;;;;;;;;;6171998;23;20079;-96
2024/02/03 04:17:03;;;;;;;6.78;6.07;;;;;;;;;;6171198;23;19923;-96
2024/02/03 04:19:40;;;;;;;6.20;4.55;;;;;;;;;;6175390;23;20009;-93
2024/02/03 04:24:53;;;;;;;5.30;4.35;;;;;;;;;;6125548;23;20007;-92
2024/02/03 04:27:46;;;;;;;5.53;4.95;;;;;;;;;;6113059;23;20010;-89
2024/02/03 04:30:29;;;;;;;;;;;;;;;;;;;;;
2024/02/03 04:33:02;;;;;;;6.15;4.60;;;;;;;;;;6100638;23;20010;-90
2024/02/03 04:35:37;;;;;;;4.95;4.13;;;;;;;;;;6100600;23;20011;-89
2024/02/03 04:38:03;;;;;;;5.85;4.90;;;;;;;;;;6101744;23;20010;-91
2024/02/03 04:40:35;;;;;;;5.63;4.93;;;;;;;;;;6102548;23;20006;-96
2024/02/03 04:43:34;;;;;;;5.15;4.30;;;;;;;;;;6101683;23;20041;-96
2024/02/03 04:46:10;;;;;;;5.20;4.18;;;;;;;;;;6074464;23;20015;-96
2024/02/03 04:48:37;;;;;;;5.28;4.78;;;;;;;;;;6101958;23;20006;-92
2024/02/03 04:51:06;;;;;;;6.18;5.57;;;;;;;;;;6101622;23;20010;-96
2024/02/03 04:53:33;;;;;;;6.60;4.35;;;;;;;;;;6102520;23;20030;-93
2024/02/03 04:55:59;;;;;;;4.90;4.32;;;;;;;;;;6105794;23;20015;-88
2024/02/03 04:58:25;;;;;;;5.85;5.15;;;;;;;;;;6104208;23;20062;-90
2024/02/03 05:04:03;;;;;;;;;;;;;;;;;;;;;
2024/02/03 05:06:30;;;;;;;5.28;4.55;;;;;;;;;;6108820;23;20026;-91
2024/02/03 05:09:07;;;;;;;5.32;4.78;;;;;;;;;;6106305;23;20006;-95
2024/02/03 05:11:55;;;;;;;6.60;5.45;;;;;;;;;;6094408;23;20038;-88
2024/02/03 05:14:28;;;;;;;6.25;5.55;;;;;;;;;;6115783;23;20336;-96
2024/02/03 05:16:54;;;;;;;7.38;5.75;;;;;;;;;;6106960;23;20063;-90
2024/02/03 05:19:22;;;;;;;5.90;4.57;;;;;;;;;;6111002;23;20384;-87
2024/02/03 05:22:21;;;;;;;6.72;5.55;;;;;;;;;;6108110;23;20010;-93
2024/02/03 05:24:53;;;;;;;5.72;5.07;;;;;;;;;;6107577;23;20026;-96
2024/02/03 05:27:20;;;;;;;6.32;4.88;;;;;;;;;;6106095;23;20058;-93
2024/02/03 05:33:09;;;;;;;6.57;5.97;;;;;;;;;;6114054;23;20009;-90
2024/02/03 05:35:43;;;;;;;7.40;5.13;;;;;;;;;;6112133;23;20014;-96
2024/02/03 05:38:21;;;;;;;;;;;;;;;;;;6109854;23;20149;-96
2024/02/03 05:41:00;;;;;;;8.77;7.88;;;;;;;;;;6113029;23;19916;-91
2024/02/03 05:46:21;;;;;;;6.18;5.57;;;;;;;;;;6170677;23;20002;-92
2024/02/03 05:48:47;;;;;;;7.57;5.32;;;;;;;;;;6175631;23;20036;-90
2024/02/03 05:51:14;;;;;;;6.20;4.88;;;;;;;;;;6144856;23;20005;-89
2024/02/03 05:53:40;;;;;;;6.20;5.07;;;;;;;;;;6144933;23;20015;-89
2024/02/03 06:02:10;;;;;;;6.32;5.43;;;;;;;;;;6202916;23;20029;-90
2024/02/03 06:10:14;;;;;;;6.32;5.22;;;;;;;;;;6120644;23;20037;-96
2024/02/03 06:12:43;;;;;;;6.93;5.50;;;;;;;;;;6057857;23;20459;-96
2024/02/03 06:15:16;;;;;;;6.45;5.80;;;;;;;;;;6103853;23;20506;-90
2024/02/03 06:17:50;;;;;;;6.45;4.85;;;;;;;;;;6175768;23;19990;-91
2024/02/03 06:31:07;;;;;;;7.78;6.97;;;;;;;;;;6179200;23;20016;-92
2024/02/03 06:33:55;;;;;;;7.70;5.47;;;;;;;;;;6142173;23;20076;-96
2024/02/03 06:39:00;;;;;;;7.05;5.68;;;;;;;;;;6116877;23;20030;-96
2024/02/03 06:41:26;;;;;;;6.50;5.43;;;;;;;;;;6087271;23;20066;-91
2024/02/03 06:50:11;;;;;;;7.38;6.30;;;;;;;;;;6132558;23;20048;-96
2024/02/03 06:56:02;;;;;;;6.57;5.95;;;;;;;;;;5982967;24;20084;-89
2024/02/03 07:02:01;;;;;;;6.68;5.68;;;;;;;;;;5989121;24;20038;-96
2024/02/03 07:04:39;;;;;;;8.10;7.30;;;;;;;;;;5998333;23;20066;-96
2024/02/03 07:07:08;;;;;;;6.40;5.60;;;;;;;;;;5996848;23;20012;-91
2024/02/03 07:10:03;;;;;;;5.78;4.82;;;;;;;;;;5988287;24;20048;-96
2024/02/03 07:12:35;;;;;;;6.53;5.20;;;;;;;;;;5990099;24;20047;-96
2024/02/03 07:15:05;;;;;;;7.72;6.25;;;;;;;;;;5944019;24;20012;-92
2024/02/03 07:17:36;;;;;;;6.93;6.05;;;;;;;;;;6046486;23;20032;-96
2024/02/03 07:20:29;;;;;;;7.32;5.88;;;;;;;;;;6175197;23;20335;-95
2024/02/03 07:23:02;;;;;;;6.93;6.22;;;;;;;;;;6189750;23;20031;-94
2024/02/03 07:25:28;;;;;;;6.68;5.97;;;;;;;;;;6161030;23;20017;-93
2024/02/03 07:27:58;;;;;;;7.57;6.78;;;;;;;;;;6138855;23;20013;-96
2024/02/03 07:30:27;;;;;;;7.70;6.45;;;;;;;;;;6181753;23;20331;-94
2024/02/03 07:32:56;;;;;;;8.00;6.80;;;;;;;;;;6166962;23;20008;-96
2024/02/03 07:35:25;;;;;;;8.05;6.47;;;;;;;;;;6165152;23;20016;-96
2024/02/03 07:41:04;;;;;;;7.55;6.30;;;;;;;;;;6015568;23;20008;-95
2024/02/03 07:43:30;;;;;;;7.30;6.60;;;;;;;;;;5993481;23;20008;-92
2024/02/03 07:45:56;;;;;;;6.43;5.72;;;;;;;;;;5995400;23;20015;-96
2024/02/03 07:50:58;;;;;;;8.20;7.15;;;;;;;;;;6119842;23;20098;-94
2024/02/03 07:56:09;;;;;;;8.15;5.68;;;;;;;;;;6206233;23;20020;-90
2024/02/03 07:58:35;;;;;;;7.55;6.15;;;;;;;;;;6177357;23;20012;-92
2024/02/03 08:01:10;;;;;;;6.90;6.30;;;;;;;;;;6177757;23;20047;-96
2024/02/03 08:06:21;;;;;;;6.70;5.88;;;;;;;;;;6175473;23;20024;-91
2024/02/03 08:08:50;;;;;;;6.32;5.72;;;;;;;;;;6146863;23;20002;-95
2024/02/03 08:11:28;;;;;;;9.13;5.47;;;;;;;;;;6151998;23;20009;-91
2024/02/03 08:16:57;;;;;;;5.88;5.28;;;;;;;;;;6103390;23;20044;-94
2024/02/03 08:22:10;;;;;;;7.15;6.25;;;;;;;;;;6114535;23;20235;-95
2024/02/03 08:25:28;;;;;;;;;;;;;;;;;;;;;
2024/02/03 08:31:08;;;;;;;7.05;6.35;;;;;;;;;;6011623;23;20065;-95
2024/02/03 08:33:37;;;;;;;7.70;6.90;;;;;;;;;;5990436;23;20099;-95
2024/02/03 08:36:41;;;;;;;8.52;7.82;;;;;;;;;;5996207;23;20011;-96
2024/02/03 08:39:16;;;;;;;7.63;6.53;;;;;;;;;;5986384;23;20031;-91
2024/02/03 08:41:45;;;;;;;6.47;5.95;;;;;;;;;;6006078;23;20004;-96
2024/02/03 08:44:48;;;;;;;8.07;7.43;;;;;;;;;;6007211;23;20024;-96
2024/02/03 08:49:52;;;;;;;8.82;8.02;;;;;;;;;;6146918;23;20039;-87
2024/02/03 08:52:27;;;;;;;8.73;8.02;;;;;;;;;;6170146;23;20005;-95
2024/02/03 08:54:53;;;;;;;15.50;7.53;;;;;;;;;;6162185;23;20012;-95
2024/02/03 08:57:19;;;;;;;8.82;8.13;;;;;;;;;;6165717;23;20037;-95
2024/02/03 08:59:51;;;;;;;8.73;7.28;;;;;;;;;;6167102;23;20005;-96
2024/02/03 09:02:21;;;;;;;9.10;8.27;;;;;;;;;;6164360;23;20028;-95
2024/02/03 09:04:53;;;;;;;17.05;15.95;;;;;;;;;;6161978;23;20017;-96
2024/02/03 09:07:34;;;;;;;25.92;24.35;;;;;;;;;;6126875;23;20034;-95
2024/02/03 09:10:09;;;;;;;12.60;11.70;;;;;;;;;;6137637;23;20026;-96
2024/02/03 09:12:42;;;;;;;9.60;8.85;;;;;;;;;;6114367;23;20032;-95
2024/02/03 09:15:08;;;;;;;4.65;4.25;;;;;;;;;;6175460;23;20001;-91
2024/02/03 09:17:51;;;;;;;3.65;3.33;;;;;;;;;;6173245;23;20013;-92
2024/02/03 09:23:38;;;;;;;3.50;2.47;;;;;;;;;;6196666;23;20036;-96
2024/02/03 09:28:55;;;;;;;3.10;2.60;;;;;;;;;;6139816;23;19923;-96
2024/02/03 09:31:24;;;;;;;3.33;2.47;;;;;;;;;;6118048;23;20474;-95
2024/02/03 09:33:51;;;;;;;3.47;2.95;;;;;;;;;;6144849;23;20077;-89
2024/02/03 09:36:42;;;;;;;3.75;3.13;;;;;;;;;;6124460;23;20017;-93
2024/02/03 09:39:08;;;;;;;3.28;2.70;;;;;;;;;;6123176;23;20034;-96
2024/02/03 09:41:37;;;;;;;3.63;2.60;;;;;;;;;;6109893;23;20062;-96
2024/02/03 09:44:04;;;;;;;3.65;3.08;;;;;;;;;;6105571;23;20012;-94
2024/02/03 09:46:47;;;;;;;4.15;2.50;;;;;;;;;;6109479;23;20014;-96
2024/02/03 09:49:33;;;;;;;3.83;2.60;;;;;;;;;;6086196;23;20026;-96
2024/02/03 09:52:00;;;;;;;3.30;2.63;;;;;;;;;;6108652;23;20017;-91
2024/02/03 09:54:29;;;;;;;2.70;2.25;;;;;;;;;;6109760;23;20099;-90
2024/02/03 09:57:21;;;;;;;6.72;3.03;;;;;;;;;;6088203;23;20013;-96
2024/02/03 10:05:44;;;;;;;;;;;;;;;;;;;;;
2024/02/03 10:08:35;;;;;;;3.65;2.55;;;;;;;;;;6196770;23;20037;-96
2024/02/03 10:11:10;;;;;;;3.20;2.75;;;;;;;;;;6153597;23;20009;-96
2024/02/03 10:13:36;;;;;;;2.92;2.47;;;;;;;;;;6176122;23;20072;-89
2024/02/03 10:18:49;;;;;;;3.65;3.35;;;;;;;;;;6180447;23;19923;-96
2024/02/03 10:21:25;;;;;;;3.20;2.83;;;;;;;;;;6193983;23;20076;-96
2024/02/03 10:30:00;;;;;;;3.72;3.30;;;;;;;;;;6025008;23;20031;-96
2024/02/03 10:44:27;;;;;;;4.88;3.78;;;;;;;;;;6103864;23;20030;-96
2024/02/03 10:57:56;;;;;;;6.50;5.95;;;;;;;;;;6118592;23;20012;-87
2024/02/03 11:03:19;;;;;;;5.15;4.75;;;;;;;;;;6135153;23;20005;-89
2024/02/03 11:14:00;;;;;;;6.70;6.30;;;;;;;;;;6109896;23;20020;-90
2024/02/03 11:19:33;;;;;;;7.35;6.70;;;;;;;;;;6136638;23;20357;-89
2024/02/03 11:22:00;;;;;;;8.57;7.88;;;;;;;;;;6116917;23;19990;-87
2024/02/03 11:27:19;;;;;;;7.13;6.63;;;;;;;;;;5434613;23;15903354;-96
2024/02/03 11:32:48;;;;;;;5.07;4.68;;;;;;;;;;6119629;23;20033;-89
2024/02/03 11:40:25;;;;;;;7.00;6.50;;;;;;;;;;6233406;23;20028;-96
2024/02/03 11:42:51;;;;;;;8.80;8.10;;;;;;;;;;6193956;23;20012;-89
2024/02/03 11:48:13;;;;;;;10.68;9.98;;;;;;;;;;6222477;23;20012;-95
2024/02/03 11:50:39;;;;;;;;;;;;;;;;;;6199299;23;20015;-95
2024/02/03 11:53:24;;;;;;;10.73;10.02;;;;;;;;;;6195255;23;19900;-95
2024/02/03 11:56:09;;;;;;;11.70;11.00;;;;;;;;;;6199323;23;20035;-94
2024/02/03 11:59:18;;;;;;;10.15;9.45;;;;;;;;;;6211514;23;20438;-89
2024/02/03 12:07:34;;;;;;;14.65;13.75;;;;;;;;;;5998795;23;20000;-89
2024/02/03 12:10:01;;;;;;;13.18;12.38;;;;;;;;;;5995242;23;20012;-89
2024/02/03 12:12:28;;;;;;;15.90;14.90;;;;;;;;;;6073171;23;20030;-90
2024/02/03 12:15:02;;;;;;;15.52;14.48;;;;;;;;;;6105574;23;20011;-95
2024/02/03 12:17:54;;;;;;;13.15;12.02;;;;;;;;;;6102476;23;20309;-94
2024/02/03 12:23:29;;;;;;;9.95;9.00;;;;;;;;;;6110558;23;20021;-90
2024/02/03 12:25:58;;;;;;;14.48;13.43;;;;;;;;;;6109385;23;20014;-90
2024/02/03 12:28:39;;;;;;;13.45;12.57;;;;;;;;;;6109337;23;20012;-96
2024/02/03 12:31:08;;;;;;;13.63;12.77;;;;;;;;;;6112802;23;20097;-90
2024/02/03 12:33:34;;;;;;;11.93;11.13;;;;;;;;;;6112156;23;20077;-89
2024/02/03 12:36:08;;;;;;;12.20;11.40;;;;;;;;;;6095936;23;20026;-93
2024/02/03 12:38:55;;;;;;;14.05;13.15;;;;;;;;;;6109412;23;20017;-96
2024/02/03 12:41:21;;;;;;;10.63;9.93;;;;;;;;;;6112371;23;20011;-88
2024/02/03 12:43:47;;;;;;;13.05;11.98;;;;;;;;;;6131011;23;20002;-90
2024/02/03 12:46:16;;;;;;;11.18;10.48;;;;;;;;;;6130412;23;20010;-91
2024/02/03 12:48:57;;;;;;;12.20;11.38;;;;;;;;;;6108675;23;20010;-94
2024/02/03 12:51:28;;;;;;;12.30;11.50;;;;;;;;;;6125165;23;20018;-94
2024/02/03 12:53:55;;;;;;;12.15;11.35;;;;;;;;;;6109485;23;20040;-93
2024/02/03 12:56:22;;;;;;;11.25;10.55;;;;;;;;;;6109204;23;20018;-93
2024/02/03 12:58:53;;;;;;;13.60;12.75;;;;;;;;;;6085146;23;20420;-91
2024/02/03 13:01:23;;;;;;;14.68;13.77;;;;;;;;;;6113243;23;20439;-93
2024/02/03 13:03:52;;;;;;;16.58;15.57;;;;;;;;;;6116514;23;20013;-96
2024/02/03 13:06:18;;;;;;;13.77;12.95;;;;;;;;;;6112820;23;20018;-90
2024/02/03 13:08:48;;;;;;;18.13;16.90;;;;;;;;;;6113945;23;19997;-91
2024/02/03 13:11:15;;;;;;;16.05;15.13;;;;;;;;;;6129763;23;20074;-91
2024/02/03 13:13:41;;;;;;;15.20;14.30;;;;;;;;;;6121853;23;20029;-89
2024/02/03 13:16:07;;;;;;;16.33;15.35;;;;;;;;;;6109085;23;20001;-90
2024/02/03 13:18:34;;;;;;;15.00;14.10;;;;;;;;;;6108503;23;20057;-90
2024/02/03 13:21:02;;;;;;;12.00;11.20;;;;;;;;;;6136206;23;20006;-90
2024/02/03 13:23:35;;;;;;;14.60;13.70;;;;;;;;;;6114071;23;20010;-88
2024/02/03 13:26:01;;;;;;;11.52;10.82;;;;;;;;;;6113517;23;20029;-94
2024/02/03 13:28:27;;;;;;;13.30;12.50;;;;;;;;;;6112468;23;20002;-90
2024/02/03 13:31:03;;;;;;;12.43;11.52;;;;;;;;;;6109661;23;20013;-89
2024/02/03 13:33:32;;;;;;;10.82;10.20;;;;;;;;;;6111359;23;20025;-90
2024/02/03 13:36:11;;;;;;;13.75;12.82;;;;;;;;;;6110536;23;20013;-88
2024/02/03 13:38:41;;;;;;;14.02;13.13;;;;;;;;;;6116230;23;20045;-89
2024/02/03 13:41:13;;;;;;;14.45;13.52;;;;;;;;;;6098936;23;20038;-90
2024/02/03 13:43:45;;;;;;;13.13;12.32;;;;;;;;;;6116766;23;20012;-91
2024/02/03 13:46:18;;;;;;;12.80;11.98;;;;;;;;;;6120548;23;20017;-91
2024/02/03 13:49:04;;;;;;;14.70;13.80;;;;;;;;;;6141010;23;20010;-89
2024/02/03 13:51:33;;;;;;;10.85;10.15;;;;;;;;;;6112151;23;20093;-89
2024/02/03 13:54:33;;;;;;;11.60;10.90;;;;;;;;;;6109176;23;20010;-89
2024/02/03 13:56:59;;;;;;;8.20;7.70;;;;;;;;;;5969934;24;20091;-93
2024/02/03 13:59:28;;;;;;;13.68;12.75;;;;;;;;;;6014315;23;20020;-96
2024/02/03 14:01:54;;;;;;;13.68;12.60;;;;;;;;;;6109874;23;20006;-89
2024/02/03 14:04:20;;;;;;;13.93;13.13;;;;;;;;;;6112816;23;20076;-89
2024/02/03 14:07:01;;;;;;;12.60;11.77;;;;;;;;;;6106504;23;20006;-91
2024/02/03 14:09:28;;;;;;;10.20;9.57;;;;;;;;;;6113267;23;20013;-89
2024/02/03 14:11:57;;;;;;;11.63;10.93;;;;;;;;;;6116107;23;20020;-96
2024/02/03 14:14:32;;;;;;;13.25;12.35;;;;;;;;;;6113463;23;20009;-96
2024/02/03 14:16:58;;;;;;;9.02;8.43;;;;;;;;;;6108249;23;20037;-91
2024/02/03 14:19:29;;;;;;;10.95;10.30;;;;;;;;;;6108640;23;20102;-96
2024/02/03 14:21:58;;;;;;;11.77;11.07;;;;;;;;;;6110824;23;20010;-96
2024/02/03 14:24:49;;;;;;;12.52;11.68;;;;;;;;;;6104738;23;20036;-91
2024/02/03 14:27:18;;;;;;;13.00;12.20;;;;;;;;;;6106360;23;20005;-89
2024/02/03 14:29:53;;;;;;;11.55;10.85;;;;;;;;;;6105748;23;20010;-95
2024/02/03 14:32:35;;;;;;;11.50;10.80;;;;;;;;;;6114368;23;20010;-96
2024/02/03 14:35:23;;;;;;;11.52;10.82;;;;;;;;;;6110839;23;20005;-96
2024/02/03 14:38:31;;;;;;;12.00;11.27;;;;;;;;;;6116423;23;20096;-96
2024/02/03 14:41:01;;;;;;;11.10;10.40;;;;;;;;;;6165884;23;20013;-92
2024/02/03 14:43:30;;;;;;;10.70;10.07;;;;;;;;;;6164164;23;20442;-88
2024/02/03 14:45:59;;;;;;;13.02;12.23;;;;;;;;;;6197823;23;20012;-88
2024/02/03 14:48:30;;;;;;;9.95;9.35;;;;;;;;;;6175301;23;20386;-91
2024/02/03 14:51:02;;;;;;;12.75;12.05;;;;;;;;;;6182522;23;20022;-91
2024/02/03 15:05:06;;;;;;;10.48;9.88;;;;;;;;;;6139218;23;20028;-91
2024/02/03 15:07:42;;;;;;;12.77;12.00;;;;;;;;;;6106351;23;20073;-96
2024/02/03 15:10:12;;;;;;;9.90;9.20;;;;;;;;;;6109538;23;20014;-89
2024/02/03 15:12:41;;;;;;;8.43;7.82;;;;;;;;;;6105604;23;20002;-88
2024/02/03 15:15:10;;;;;;;9.93;9.32;;;;;;;;;;6107805;23;20034;-91
2024/02/03 15:17:36;;;;;;;11.75;10.95;;;;;;;;;;6134378;23;20014;-89
2024/02/03 15:20:02;;;;;;;14.63;13.55;;;;;;;;;;6107912;23;20009;-88
2024/02/03 15:22:28;;;;;;;11.38;10.57;;;;;;;;;;6106980;23;20006;-87
2024/02/03 15:24:54;;;;;;;14.07;13.27;;;;;;;;;;6103201;23;20018;-88
2024/02/03 15:27:20;;;;;;;10.68;9.93;;;;;;;;;;6102932;23;20060;-88
2024/02/03 15:29:52;;;;;;;11.65;10.98;;;;;;;;;;6104136;23;20006;-88
2024/02/03 15:35:36;;;;;;;9.00;8.40;;;;;;;;;;5982260;24;20068;-91
2024/02/03 15:38:02;;;;;;;7.32;6.82;;;;;;;;;;5983062;24;20573;-89
2024/02/03 15:40:28;;;;;;;12.20;11.43;;;;;;;;;;5983050;24;20088;-95
2024/02/03 15:42:56;;;;;;;12.18;11.27;;;;;;;;;;5961083;24;20005;-88
2024/02/03 15:45:31;;;;;;;9.38;8.82;;;;;;;;;;5960915;24;20454;-94
2024/02/03 15:48:00;;;;;;;11.88;11.13;;;;;;;;;;5983960;24;20081;-95
2024/02/03 15:50:30;;;;;;;9.75;9.15;;;;;;;;;;5964453;24;20012;-95
2024/02/03 15:53:02;;;;;;;8.98;8.38;;;;;;;;;;5990681;24;20031;-93
2024/02/03 15:55:29;;;;;;;9.45;8.85;;;;;;;;;;5997018;24;20021;-90
2024/02/03 15:57:59;;;;;;;10.07;9.48;;;;;;;;;;5994640;24;20008;-94
2024/02/03 16:00:32;;;;;;;6.72;6.30;;;;;;;;;;5998137;23;20028;-89
2024/02/03 16:02:58;;;;;;;9.45;8.82;;;;;;;;;;5998742;24;20019;-96
2024/02/03 16:05:24;;;;;;;10.90;10.15;;;;;;;;;;6002720;23;20056;-89
2024/02/03 16:08:09;;;;;;;10.80;10.10;;;;;;;;;;5974578;24;20533;-89
2024/02/03 16:11:00;;;;;;;10.00;9.38;;;;;;;;;;6033042;23;20064;-89
2024/02/03 16:13:29;;;;;;;5.35;4.95;;;;;;;;;;6115421;23;20018;-90
2024/02/03 16:16:20;;;;;;;7.00;6.50;;;;;;;;;;6111571;23;20018;-93
2024/02/03 16:18:47;;;;;;;8.95;8.35;;;;;;;;;;6141911;23;20014;-91
2024/02/03 16:24:19;;;;;;;5.78;5.38;;;;;;;;;;6131830;23;20732;-90
2024/02/03 16:26:45;;;;;;;7.13;6.63;;;;;;;;;;6111472;23;20296;-92
2024/02/03 16:29:17;;;;;;;7.15;6.65;;;;;;;;;;6171264;23;20028;-91
2024/02/03 16:31:49;;;;;;;9.13;8.52;;;;;;;;;;6145842;23;20053;-96
2024/02/03 16:37:17;;;;;;;8.40;7.80;;;;;;;;;;6059438;23;20329;-87
2024/02/03 16:39:46;;;;;;;11.45;10.55;;;;;;;;;;6108616;23;20090;-89
2024/02/03 16:42:18;;;;;;;23.27;16.25;;;;;;;;;;6114089;23;20009;-96
2024/02/03 16:44:49;;;;;;;8.57;7.88;;;;;;;;;;6146692;23;20021;-91
2024/02/03 16:47:17;;;;;;;8.13;7.57;;;;;;;;;;6122142;23;20033;-89
2024/02/03 16:49:56;;;;;;;9.35;8.75;;;;;;;;;;6111634;23;20073;-96
2024/02/03 16:52:41;;;;;;;10.90;10.23;;;;;;;;;;6119244;23;20013;-89
2024/02/03 16:55:10;;;;;;;10.05;9.30;;;;;;;;;;6117708;23;20014;-90
2024/02/03 16:57:49;;;;;;;11.88;10.52;;;;;;;;;;6113920;23;20005;-90
2024/02/03 17:00:17;;;;;;;12.70;11.68;;;;;;;;;;6110858;23;20014;-91
2024/02/03 17:02:44;;;;;;;12.70;11.80;;;;;;;;;;6128070;23;20002;-90
2024/02/03 17:05:13;;;;;;;9.40;8.57;;;;;;;;;;6105690;23;20017;-90
2024/02/03 17:07:51;;;;;;;12.05;10.90;;;;;;;;;;6104416;23;20453;-88
2024/02/03 17:10:17;;;;;;;15.95;13.85;;;;;;;;;;6104255;23;20010;-89
2024/02/03 17:12:44;;;;;;;9.43;8.45;;;;;;;;;;6129686;23;20026;-90
2024/02/03 17:15:33;;;;;;;11.93;10.73;;;;;;;;;;6102205;23;20029;-93
2024/02/03 17:18:00;;;;;;;10.70;9.98;;;;;;;;;;6085835;23;20041;-88
2024/02/03 17:20:27;;;;;;;10.10;9.50;;;;;;;;;;6103643;23;20057;-92
2024/02/03 17:23:14;;;;;;;11.25;10.55;;;;;;;;;;6106344;23;20097;-90
2024/02/03 17:25:41;;;;;;;8.73;8.13;;;;;;;;;;6113533;23;20021;-90
2024/02/03 17:28:07;;;;;;;9.65;9.07;;;;;;;;;;6081720;23;20010;-93
2024/02/03 17:30:34;;;;;;;12.50;11.70;;;;;;;;;;6104906;23;20072;-96
2024/02/03 17:33:00;;;;;;;8.50;7.97;;;;;;;;;;6104232;23;20026;-90
2024/02/03 17:35:29;;;;;;;8.80;8.23;;;;;;;;;;6104124;23;20045;-89
2024/02/03 17:37:58;;;;;;;9.55;8.95;;;;;;;;;;6128159;23;19986;-88
2024/02/03 17:40:24;;;;;;;12.25;11.25;;;;;;;;;;6126607;23;20005;-95
2024/02/03 17:42:53;;;;;;;13.57;12.77;;;;;;;;;;6104822;23;20348;-95
2024/02/03 17:45:19;;;;;;;8.70;8.10;;;;;;;;;;6101522;23;20100;-87
2024/02/03 17:47:48;;;;;;;9.20;8.65;;;;;;;;;;6103697;23;20002;-95
2024/02/03 17:50:18;;;;;;;9.07;8.52;;;;;;;;;;6105550;23;20443;-95
2024/02/03 17:52:45;;;;;;;9.35;8.75;;;;;;;;;;6105282;23;20006;-92
2024/02/03 17:55:11;;;;;;;7.57;7.00;;;;;;;;;;6103290;23;20018;-89
2024/02/03 17:57:38;;;;;;;9.38;8.77;;;;;;;;;;6105648;23;20006;-89
2024/02/03 18:00:15;;;;;;;7.78;7.28;;;;;;;;;;6105718;23;20320;-96
2024/02/03 18:02:48;;;;;;;6.45;5.95;;;;;;;;;;6105031;23;20017;-89
2024/02/03 18:05:20;;;;;;;9.90;9.23;;;;;;;;;;6102177;23;20025;-95
2024/02/03 18:08:09;;;;;;;5.00;4.63;;;;;;;;;;6130347;23;20010;-96
2024/02/03 18:10:39;;;;;;;7.78;7.18;;;;;;;;;;6106998;23;20037;-96
2024/02/03 18:13:34;;;;;;;7.20;6.68;;;;;;;;;;6114493;23;20022;-92
2024/02/03 18:16:13;;;;;;;7.72;7.13;;;;;;;;;;6117122;23;20013;-96
2024/02/03 18:18:52;;;;;;;6.72;6.32;;;;;;;;;;6115448;23;20009;-96
2024/02/03 18:31:34;;;;;;;6.85;6.35;;;;;;;;;;6150560;23;20048;-96
2024/02/03 18:34:01;;;;;;;6.50;6.03;;;;;;;;;;6117808;23;20009;-95
2024/02/03 18:36:53;;;;;;;7.97;7.40;;;;;;;;;;6124312;23;20006;-87
2024/02/03 18:39:31;;;;;;;7.15;6.47;;;;;;;;;;6122112;23;20046;-92
2024/02/03 18:42:06;;;;;;;5.65;5.20;;;;;;;;;;6117720;23;19994;-96
2024/02/03 18:55:52;;;;;;;7.18;6.68;;;;;;;;;;6117293;23;20040;-93
2024/02/03 19:03:57;;;;;;;5.57;5.07;;;;;;;;;;6122577;23;20025;31
2024/02/03 19:06:25;;;;;;;6.65;6.05;;;;;;;;;;6142398;23;20037;-92